This is the latest recevied weather packets stored in our database for station/object KE0WPC. If no packets are shown the sender has not sent any weather packets the latest 10 day(s).
| Time | Temp. | Humidity | Pressure | Rain* | Wind** | Luminosity | Snow |
|---|---|---|---|---|---|---|---|
| 1777594518 | 7.22° C | 68% | 1017.9 hPa | - | - | - | - |
| 1777594215 | 7.78° C | 69% | 1017.6 hPa | - | - | - | - |
| 1777593911 | 7.78° C | 70% | 1017.6 hPa | - | - | - | - |
| 1777593607 | 7.22° C | 71% | 1017.6 hPa | - | - | - | - |
| 1777593303 | 6.67° C | 71% | 1017.6 hPa | - | - | - | - |
| 1777592997 | 6.67° C | 71% | 1017.9 hPa | - | - | - | - |
| 1777592692 | 6.67° C | 71% | 1017.9 hPa | - | - | - | - |
| 1777592388 | 6.67° C | 72% | 1017.9 hPa | - | - | - | - |
| 1777592083 | 6.67° C | 72% | 1018.2 hPa | - | - | - | - |
| 1777591781 | 6.67° C | 69% | 1017.9 hPa | - | - | - | - |
| 1777591476 | 6.67° C | 68% | 1018.2 hPa | - | - | - | - |
| 1777591173 | 7.22° C | 66% | 1018.2 hPa | - | - | - | - |
| 1777590872 | 7.22° C | 65% | 1017.9 hPa | - | - | - | - |
| 1777590569 | 7.22° C | 64% | 1017.9 hPa | - | - | - | - |
| 1777590260 | 7.22° C | 63% | 1018.2 hPa | - | - | - | - |
| 1777589958 | 7.22° C | 62% | 1017.6 hPa | - | - | - | - |
| 1777589654 | 7.22° C | 61% | 1017.6 hPa | - | - | - | - |
| 1777589351 | 7.78° C | 58% | 1017.9 hPa | - | - | - | - |
| 1777589048 | 8.33° C | 56% | 1017.6 hPa | - | - | - | - |
| 1777588745 | 9.44° C | 52% | 1017.9 hPa | - | - | - | - |
| 1777588440 | 9.44° C | 51% | 1017.6 hPa | - | - | - | - |
| 1777588135 | 9.44° C | 51% | 1017.6 hPa | - | - | - | - |
| 1777587832 | 10° C | 50% | 1017.6 hPa | - | - | - | - |
| 1777587531 | 10° C | 50% | 1017.9 hPa | - | - | - | - |
| 1777587228 | 10° C | 49% | 1017.6 hPa | - | - | - | - |
* Rain since midnight (hover to see other rain measurements)
** Current wind speed in m/s (hover to see current wind gust speed)